NWS Home NWS Lubbock West Texas Mesonet Latest Conditions as of 0140 AM, Thu Apr 17, 2014

Latest   N   C   S   Daily Sum   3hrΔ   24hrΔ   Soil Data 
Site Map   24hr Precip   72hr Precip   Google Plot


Station Time of Last Temp Dew Pt. RH Wind Direction Wind Speed Wind Gust Max Wind Max Temp Min Temp Max RH Min RH Altimeter 1HR Rain Today's Rain Solar Rad
Abernathy 5ENE  01:35 AM 58 31 36% E58 30 mph 173° @ 1220 AM 61 58 36 30 29.88" 0 0.00 0
Aiken 3WSW  01:36 AM 54 28 37% E1112 16 mph 68° @ 0134 AM 56 52 42 35 29.92" 0 0.00 0
Amarillo 7SSE  01:35 AM 50 25 38% NE2124 26 mph 56° @ 0133 AM 54 50 38 31 29.95" 0 0.00 0
Amarillo 9NNE  01:35 AM 54 28 37% NE1823 28 mph 47° @ 0133 AM 56 54 37 36 29.97" 0 0.00 0
Amherst 1NE  01:35 AM 57 30 36% SE1621 21 mph 151° @ 0135 AM 61 57 36 27 29.86" 0 0.00 0
Andrews 2E  01:35 AM 56 35 44% S1320 25 mph 154° @ 1210 AM 59 56 44 34 29.82" 0 0.00 0
Anton 6SSW  01:35 AM 57 32 39% SW814 35 mph 166° @ 1255 AM 61 57 39 34 29.85" 0 0.00 0
Aspermont 3NE  01:35 AM 60 36 40% SE1016 26 mph 153° @ 1240 AM 63 60 40 32 29.87" 0 0.00 0
Big Bend NP - Persimmon Gap  01:36 AM 63 35 35% NE1315 22 mph 22° @ 1201 AM 64 62 35 33 29.84" 0 0.00 0
Big Lake 1WNW  01:35 AM 57 39 51% S1316 23 mph 168° @ 1257 AM 58 57 51 46 29.87" 0 0.00 0
Bootleg 11WNW  01:35 AM 49 27 42% NE2024 38 mph 39° @ 1202 AM 52 49 42 38 29.96" 0 0.00 0
Brownfield 2S  01:35 AM 54 32 43% SE1721 26 mph 162° @ 1255 AM 58 54 43 36 29.83" 0 0.00 0
Canadian 6E  01:35 AM 51 35 52% NE1821 28 mph 31° @ 0123 AM 56 51 52 35 30.03" 0 0.00 0
Caprock Canyons State Park  01:35 AM 57 31 37% NE69 11 mph 75° @ 1237 AM 59 57 37 31 29.94" 0 0.00 0
Childress 2NNE  01:35 AM 55 37 50% E1519 25 mph 108° @ 1230 AM 58 55 50 40 29.93" 0 0.00 0
Clarendon 2WSW  01:35 AM 52 33 48% E1319 22 mph 72° @ 1230 AM 56 52 48 34 29.95" 0 0.00 0
Claude 12SW  01:35 AM 52 29 41% E1417 23 mph 70° @ 1239 AM 54 51 41 36 29.94" 0 0.00 0
Coyanosa 2N  01:35 AM 59 36 42% SE1720 22 mph 117° @ 1238 AM 61 59 42 37 29.79" 0 0.00 0
Denver City 7WNW  01:35 AM 53 30 42% S1418 19 mph 161° @ 1205 AM 57 53 42 34 29.81" 0 0.00 0
Dimmitt 2NE  01:35 AM 52 23 32% E1924 24 mph 94° @ 0135 AM 55 52 32 26 29.88" 0 0.00 0
Dora NM 2SW  01:35 AM 51 25 36% NW1214 20 mph 8° @ 1225 AM 55 51 36 29 29.89" 0 0.00 0
Floydada 2NNE  01:35 AM 52 23 33% NE77 15 mph 123° @ 1215 AM 60 52 33 25 29.89" 0 0.00 0
Fluvanna 3WNW  01:35 AM 57 32 38% S1823 27 mph 164° @ 0120 AM 60 57 38 31 29.85" 0 0.00 0
Friona 2NE  01:35 AM 51 23 33% NE1417 33 mph 47° @ 1210 AM 56 51 34 29 29.90" 0 0.00 0
Gail 2ESE  01:35 AM 58 34 41% S1217 22 mph 166° @ 1230 AM 60 58 41 33 29.84" 0 0.00 0
Goodlett 3W  01:35 AM 56 38 52% E1620 26 mph 99° @ 0100 AM 58 56 52 43 29.93" 0 0.00 0
Graham 5SSW  01:35 AM 58 31 37% S1923 31 mph 163° @ 1235 AM 62 58 37 30 29.84" 0 0.00 0
Guthrie 10WSW  01:35 AM 55 31 40% E911 21 mph 141° @ 1225 AM 62 55 40 31 29.88" 0 0.00 0
Hart 3N  01:35 AM 50 30 47% E1315 18 mph 80° @ 1255 AM 53 50 47 34 29.90" 0 0.00 0
Haskell 1NW  01:35 AM 57 35 46% SE1012 18 mph 145° @ 1230 AM 59 56 46 36 29.89" 0 0.00 0
Hereford 2NW  01:35 AM 51 24 35% NE1419 23 mph 48° @ 1240 AM 57 51 35 25 29.91" 0 0.00 0
Hobbs NM 5NW  01:35 AM 54 32 43% S1416 20 mph 165° @ 0107 AM 59 54 43 34 29.83" 0 0.00 0
Jayton 1SSE  01:35 AM 58 31 37% SE912 20 mph 156° @ 1225 AM 63 58 37 29 29.87" 0 0.00 0
Junction 1SSW  01:35 AM 58 48 67% S1316 18 mph 146° @ 1237 AM 61 58 67 54 29.94" 0 0.00 0
Knox City 3NW  01:35 AM 57 36 47% E1014 22 mph 123° @ 1220 AM 60 57 47 35 29.90" 0 0.00 0
Lake Alan Henry 1NW  01:35 AM 60 33 37% S811 21 mph 177° @ 1206 AM 63 60 37 29 29.85" 0 0.00 0
Lamesa 2SE  01:35 AM 55 34 46% SE1417 19 mph 154° @ 0130 AM 57 55 46 37 29.85" 0 0.00 0
Levelland 4S  01:35 AM 55 31 39% SE1622 29 mph 157° @ 1210 AM 59 55 39 33 29.83" 0 0.00 0
Lomax 1SSE  01:35 AM 57 37 47% SE1720 27 mph 167° @ 1234 AM 60 57 47 39 29.84" 0 0.00 0
Lubbock 3WNW TTU  01:35 AM 58 31 36% S1826 32 mph 152° @ 1215 AM 62 58 36 30 29.83" 0 0.00 0
McLean 1E  01:35 AM 51 34 51% E1317 20 mph 96° @ 0120 AM 54 51 51 39 29.97" 0 0.00 0
Memphis 1NE  01:35 AM 55 35 48% E1319 22 mph 72° @ 0130 AM 58 55 48 36 29.95" 0 0.00 0
Mertzon 3NNE  01:35 AM 57 38 50% SE910 14 mph 151° @ 0129 AM 59 57 50 44 29.88" 0 0.00 0
Morton 1ENE  01:35 AM 55 29 37% S89 25 mph 163° @ 1205 AM 60 55 37 28 29.86" 0 0.00 0
Muleshoe 2SSW  01:35 AM 56 27 33% SE1012 12 mph 144° @ 0135 AM 56 49 33 26 29.84" 0 0.00 0
Northfield 1S  01:35 AM 59 34 40% E1218 18 mph 96° @ 0135 AM 62 59 40 30 29.91" 0 0.00 0
O'Donnell 1N  01:35 AM 56 32 41% S1725 25 mph 165° @ 1255 AM 59 56 41 32 29.83" 0 0.00 0
Odell 4ENE  01:35 AM 54 42 63% E1517 23 mph 100° @ 1228 AM 56 54 63 53 29.97" 0 0.00 0
Olton 6S  01:35 AM 57 31 38% W36 24 mph 168° @ 1210 AM 61 57 38 29 29.90" 0 0.00 0
Paducah 10SW  01:35 AM 56 33 41% SE1216 20 mph 123° @ 1205 AM 60 56 41 31 29.89" 0 0.00 0
Palo Duro Canyon State Park  01:35 AM 54 29 38% E1215 23 mph 100° @ 0133 AM 57 54 38 32 29.95" 0 0.00 0
Pampa 2E  01:35 AM 49 30 47% NE1317 18 mph 49° @ 0130 AM 52 47 47 37 30.01" 0 0.00 0
Plains 3N  01:35 AM 54 31 42% SE912 26 mph 159° @ 1210 AM 59 54 42 34 29.82" 0 0.00 0
Plainview 1S  01:35 AM 54 27 35% E46 14 mph 74° @ 1240 AM 59 54 35 29 29.90" 0 0.00 0
Post 1NE  01:35 AM 59 32 36% SE1219 25 mph 166° @ 1225 AM 63 59 36 28 29.85" 0 0.00 0
Ralls 1SE  01:35 AM 58 30 35% S1924 24 mph 169° @ 0135 AM 60 58 35 29 29.86" 0 0.00 0
Reese Center  01:35 AM 56 30 37% SE2127 31 mph 161° @ 1215 AM 60 56 37 32 29.83" 0 0.00 0
Roaring Springs 3N  01:35 AM 55 29 38% E910 18 mph 132° @ 1215 AM 60 55 38 28 29.89" 0 0.00 0
San Angelo 7NW  01:35 AM 56 35 45% E79 12 mph 119° @ 0115 AM 59 56 45 38 29.88" 0 0.00 0
Seagraves 1SW  01:35 AM 54 32 45% SE1216 22 mph 155° @ 1230 AM 58 54 45 37 29.82" 0 0.00 0
Seminole 2NNE  01:35 AM 54 33 45% SE1316 20 mph 153° @ 1215 AM 58 54 45 37 29.82" 0 0.00 0
Seymour 3NW  01:35 AM 57 43 60% SE1620 22 mph 123° @ 1245 AM 59 56 60 47 29.93" 0 0.00 0
Silverton 7ESE  01:35 AM 53 28 38% E1113 19 mph 80° @ 1250 AM 57 53 38 32 29.94" 0 0.00 0
Slaton 2NE  01:35 AM 56 31 38% SE1618 22 mph 161° @ 1230 AM 60 56 38 32 29.85" 0 0.00 0
Snyder 3E  01:35 AM 57 35 43% S1621 22 mph 162° @ 0110 AM 60 57 43 32 29.86" 0 0.00 0
Spur 1W  01:35 AM 57 27 32% SE58 14 mph 142° @ 0110 AM 58 56 33 29 29.86" 0 0.00 0
St. Lawrence 5SW  01:35 AM 55 35 48% SE1416 21 mph 151° @ 1220 AM 57 55 48 40 29.86" 0 0.00 0
Sterling City 4WSW  01:35 AM 58 37 46% SE1216 23 mph 140° @ 1241 AM 60 58 46 39 29.87" 0 0.00 0
Sundown 8WSW  01:35 AM 55 31 41% S1219 27 mph 160° @ 0110 AM 59 55 41 34 29.83" 0 0.00 0
Tahoka 3NNE  01:35 AM 56 32 42% S1924 30 mph 162° @ 1220 AM 59 56 42 35 29.83" 0 0.00 0
Tatum NM 2SW  01:35 AM 55 30 39% S1419 26 mph 165° @ 1205 AM 58 55 39 30 29.83" 0 0.00 0
Tulia 2ENE  01:35 AM 51 27 39% E1215 19 mph 92° @ 1240 AM 57 51 39 30 29.92" 0 0.00 0
Turkey 2WSW  01:35 AM 57 30 36% E1114 18 mph 84° @ 0125 AM 60 57 36 30 29.91" 0 0.00 0
Umbarger 3NNE  01:35 AM 51 26 38% NE1619 25 mph 59° @ 1211 AM 56 51 38 28 29.93" 0 0.00 0
Wall 1E  01:35 AM 54 34 47% E1012 12 mph 109° @ 0135 AM 57 54 47 41 29.89" 0 0.00 0
Weinert 2NNE  01:36 AM 55 38 53% E1114 17 mph 126° @ 1205 AM 60 55 53 40 29.91" 0 0.00 0
White River Lake 6NW  01:35 AM 58 29 33% SE1215 21 mph 157° @ 1255 AM 61 58 33 27 29.86" 0 0.00 0
Wolfforth 6SSW  01:35 AM 56 31 38% S1723 25 mph 168° @ 1225 AM 60 56 38 33 29.83" 0 0.00 0

West Texas Mesonet Home   Site Map/Menu  NWS Lubbock Soil Data  Daily Summary Page  24hr Precip  72hr Precip  Google Plot